Tervuren markt Meer informatie Tervuren markt


Bezoek onze andere website:

Meteotemplate

Home Weather Station

Saratoga


Lokaal brand risico:
CBI


Regionaal brand risico: Meer informatie



METAR rapporten vliegvelden

   
EBBR - Brussels
Gewijzigd: Oct 27 2020 11:50 pm
Licht bewolkt  
Licht bewolkt  
   Wind: ZW 20.4 km/h
Wind: ZW 20.4 km/h
Temperatuur: 12°C
Dauwpunt: 10°C
Vochtigheid: 88%
Barometer: 1003 mb
Bewolking: Licht bewolkt
Zicht: meer dan 10 km
Bewolking: Licht bewolkt 426.7 m
EBBR 272250Z 23011KT 9999 FEW014 12/10 Q1003 NOSIG
EBAW - Antwerp
Gewijzigd: Oct 27 2020 11:50 pm
Licht bewolkt  
Licht bewolkt  
   Wind: ZW 16.7 km/h
Wind: ZW 16.7 km/h
Temperatuur: 12°C
Dauwpunt: 10°C
Vochtigheid: 88%
Barometer: 1002 mb
Bewolking: Licht bewolkt
Zicht: meer dan 10 km
Bewolking: Licht bewolkt 487.7 m
EBAW 272250Z AUTO 23009KT 200V260 9999 // FEW016/// 12/10 Q1002
EHBK - Maastricht
Gewijzigd: Oct 27 2020 11:55 pm
Wat regen mogelijk, Motregen, Grotendeels bewolkt  
Wat regen mogelijk, Motregen, Grotendeels bewolkt  
   Wind: ZZW 33.3 km/h
Wind: ZZW 33.3 km/h
Temperatuur: 11°C
Dauwpunt: 9°C
Vochtigheid: 88%
Barometer: 1003 mb
Bewolking: Grotendeels bewolkt
Zicht: meer dan 10 km
Bewolking: Licht bewolkt 61 m,
Gedeeltelijk bewolkt 518.2 m,
Grotendeels bewolkt 609.6 m
EHBK 272255Z AUTO 21018KT 180V240 9999 -RADZ FEW002 SCT017 BKN020 11/09 Q1003
EDLV - Nijmegen
Gewijzigd: Oct 27 2020 11:50 pm
Grotendeels bewolkt  
Grotendeels bewolkt  
   Wind: ZZW 25.9 km/h
Wind: ZZW 25.9 km/h
Temperatuur: 11°C
Dauwpunt: 10°C
Vochtigheid: 94%
Barometer: 1001 mb
Bewolking: Grotendeels bewolkt
Zicht: meer dan 10 km
Bewolking: Grotendeels bewolkt 304.8 m
EDLV 272250Z 20014KT 170V230 9999 BKN010 11/10 Q1001
EHRD - Rotterdam
Gewijzigd: Oct 27 2020 11:55 pm
Licht bewolkt  
Licht bewolkt  
   Wind: ZW 24.1 km/h
Wind: ZW 24.1 km/h
Temperatuur: 12°C
Dauwpunt: 11°C
Vochtigheid: 94%
Barometer: 999 mb
Bewolking: Licht bewolkt
Zicht: meer dan 10 km
Bewolking: Licht bewolkt 304.8 m
EHRD 272255Z AUTO 22013KT 190V250 9999 FEW010 12/11 Q0999 REDZ NOSIG
 

Script ontwikkeld door  Saratoga-weather.org Aangepast voor de template door  Weerstation Leuven

U vindt ons ook hier:

Het Weer Aktueel

UK Metoffice

European Weather Network

WeatherCloud

Weather Underground

Benelux Weer Netwerk

AWEKAS

Citizen Weather Observer Program (CWOP)

HAMweather, WeatherForYou, PWS Weather

Apparatuur in gebruik:

Weerstation
Davis VP2

Weerprogramma
Meteobridge

Weercomputer
TP-Link MR3020

Davis VP2

Meteobridge

TP-Link MR3020